createdAt,value
2023-11-23T00:03:20.713Z,88.26
2023-11-23T00:08:22.201Z,88.23
2023-11-23T00:13:23.652Z,88.13
2023-11-23T00:18:25.250Z,87.75
2023-11-23T00:23:26.803Z,88.10
2023-11-23T00:28:28.278Z,88.00
2023-11-23T00:33:29.895Z,88.40
2023-11-23T00:38:31.498Z,88.47
2023-11-23T00:43:32.977Z,88.40
2023-11-23T00:48:34.565Z,88.63
2023-11-23T00:53:36.139Z,88.89
2023-11-23T00:58:37.724Z,88.54
2023-11-23T01:03:39.915Z,88.50
2023-11-23T01:08:41.528Z,88.28
2023-11-23T01:13:43.107Z,88.25
2023-11-23T01:18:44.818Z,89.14
2023-11-23T01:23:46.889Z,89.52
2023-11-23T01:28:48.451Z,89.53
2023-11-23T01:33:49.980Z,90.11
2023-11-23T01:38:51.542Z,90.46
2023-11-23T01:43:53.100Z,90.11
2023-11-23T01:48:56.616Z,89.64
2023-11-23T01:53:59.292Z,89.69
2023-11-23T01:59:00.936Z,89.61
2023-11-23T02:04:03.032Z,89.46
2023-11-23T02:09:04.913Z,89.48
2023-11-23T02:14:07.891Z,89.25
2023-11-23T02:19:09.745Z,89.07
2023-11-23T02:24:12.861Z,89.29
2023-11-23T02:29:14.584Z,89.33
2023-11-23T02:34:16.070Z,88.77
2023-11-23T02:39:17.623Z,88.84
2023-11-23T02:44:19.181Z,89.46
2023-11-23T02:49:20.670Z,89.76
2023-11-23T02:54:22.232Z,89.96
2023-11-23T02:59:23.809Z,90.10
2023-11-23T03:04:25.380Z,90.81
2023-11-23T03:09:26.871Z,91.27
2023-11-23T03:14:28.561Z,91.16
2023-11-23T03:19:30.112Z,90.99
2023-11-23T03:24:32.123Z,90.75
2023-11-23T03:29:34.815Z,90.71
2023-11-23T03:34:36.265Z,90.62
2023-11-23T03:39:37.753Z,90.52
2023-11-23T03:44:39.253Z,90.80
2023-11-23T03:49:40.729Z,90.79
2023-11-23T03:54:42.232Z,91.25
2023-11-23T03:59:43.724Z,90.98
2023-11-23T04:04:45.187Z,91.37
2023-11-23T04:09:46.678Z,91.40
2023-11-23T04:14:48.229Z,90.99
2023-11-23T04:19:49.726Z,91.56
2023-11-23T04:24:51.254Z,90.82
2023-11-23T04:29:52.790Z,92.14
2023-11-23T04:34:54.272Z,91.53
2023-11-23T04:39:55.763Z,92.00
2023-11-23T04:44:57.243Z,91.84
2023-11-23T04:49:59.332Z,91.36
2023-11-23T04:55:00.835Z,91.28
2023-11-23T05:00:02.381Z,90.78
2023-11-23T05:05:04.256Z,90.87
2023-11-23T05:10:09.158Z,89.79
2023-11-23T05:15:11.214Z,89.92
2023-11-23T05:20:13.715Z,89.82
2023-11-23T05:25:15.928Z,89.98
2023-11-23T05:30:21.079Z,89.52
2023-11-23T05:35:22.617Z,89.70
2023-11-23T05:40:24.172Z,89.29
2023-11-23T05:45:26.792Z,89.53
2023-11-23T05:50:28.267Z,90.26
2023-11-23T05:55:29.844Z,90.34
2023-11-23T06:00:32.447Z,89.95
2023-11-23T06:05:34.132Z,88.46
2023-11-23T06:10:35.687Z,87.08
2023-11-23T06:15:37.144Z,87.04
2023-11-23T06:20:38.628Z,86.53
2023-11-23T06:25:40.471Z,86.57
2023-11-23T06:30:42.026Z,86.88
2023-11-23T06:35:44.158Z,86.16
2023-11-23T06:40:45.797Z,86.08
2023-11-23T06:45:47.461Z,85.71
2023-11-23T06:50:49.020Z,86.48
2023-11-23T06:55:50.482Z,85.85
2023-11-23T07:00:51.923Z,85.86
2023-11-23T07:05:53.402Z,85.36
2023-11-23T07:10:55.079Z,84.68
2023-11-23T07:15:56.550Z,84.16
2023-11-23T07:20:58.794Z,85.95
2023-11-23T07:26:00.326Z,85.23
2023-11-23T07:31:02.388Z,84.67
2023-11-23T07:36:05.074Z,86.33
2023-11-23T07:41:07.868Z,86.45
2023-11-23T07:46:10.334Z,85.98
2023-11-23T07:51:11.799Z,84.75
2023-11-23T07:56:15.972Z,85.18
2023-11-23T08:01:17.439Z,85.10
2023-11-23T08:06:20.631Z,84.52
2023-11-23T08:11:22.698Z,84.99
2023-11-23T08:16:24.469Z,84.51
2023-11-23T08:21:26.335Z,85.74
2023-11-23T08:26:29.293Z,85.13
2023-11-23T08:31:30.841Z,84.52
2023-11-23T08:36:32.407Z,85.23
2023-11-23T08:41:33.921Z,85.48
2023-11-23T08:46:36.290Z,85.16
2023-11-23T08:51:38.501Z,85.11
2023-11-23T08:56:39.964Z,84.51
2023-11-23T09:01:44.836Z,84.28
2023-11-23T09:06:48.651Z,86.25
2023-11-23T09:11:50.137Z,84.96
2023-11-23T09:16:51.678Z,86.01
2023-11-23T09:21:54.656Z,86.75
2023-11-23T09:26:56.120Z,86.37
2023-11-23T09:31:57.609Z,86.10
2023-11-23T09:36:59.399Z,85.67
2023-11-23T09:42:05.192Z,84.58
2023-11-23T09:47:07.200Z,86.05
2023-11-23T09:52:08.691Z,86.53
2023-11-23T09:57:10.237Z,86.87
2023-11-23T10:02:15.126Z,88.22
2023-11-23T10:07:17.930Z,88.11
2023-11-23T10:12:20.315Z,88.12
2023-11-23T10:17:22.051Z,87.97
2023-11-23T10:22:23.592Z,86.83
2023-11-23T10:27:25.150Z,85.34
2023-11-23T10:32:27.667Z,83.14
2023-11-23T10:37:30.649Z,82.76
2023-11-23T10:42:36.653Z,81.85
2023-11-23T10:47:39.481Z,82.87
2023-11-23T10:52:45.645Z,82.21
2023-11-23T10:57:57.285Z,83.22
2023-11-23T11:03:01.401Z,83.21
2023-11-23T11:08:06.410Z,83.73
2023-11-23T11:13:11.861Z,84.10
2023-11-23T11:18:13.464Z,83.29
2023-11-23T11:23:15.244Z,84.48
2023-11-23T11:28:16.759Z,83.01
2023-11-23T11:33:19.158Z,82.67
2023-11-23T11:38:20.769Z,82.29
2023-11-23T11:43:22.494Z,82.84
2023-11-23T11:48:24.064Z,82.27
2023-11-23T11:53:26.007Z,81.57
2023-11-23T11:58:28.025Z,80.38
2023-11-23T12:03:29.569Z,80.17
2023-11-23T12:08:37.840Z,80.76
2023-11-23T12:13:39.310Z,80.18
2023-11-23T12:18:41.992Z,81.26
2023-11-23T12:23:44.633Z,80.84
2023-11-23T12:28:50.501Z,80.90
2023-11-23T12:33:51.965Z,82.46
2023-11-23T12:38:53.533Z,82.77
2023-11-23T12:43:55.066Z,82.53
2023-11-23T12:48:56.570Z,82.63
2023-11-23T12:53:58.302Z,82.84
2023-11-23T12:58:59.761Z,80.86
2023-11-23T13:04:04.893Z,82.20
2023-11-23T13:09:13.005Z,81.16
2023-11-23T13:14:16.708Z,81.72
2023-11-23T13:19:27.028Z,82.36
2023-11-23T13:24:37.816Z,81.20
2023-11-23T13:29:39.653Z,81.36
2023-11-23T13:34:41.751Z,80.68
2023-11-23T13:39:43.309Z,81.22
2023-11-23T13:44:45.875Z,80.88
2023-11-23T13:49:47.368Z,80.77
2023-11-23T13:54:49.315Z,80.62
2023-11-23T13:59:51.012Z,80.95
2023-11-23T14:04:52.855Z,80.52
2023-11-23T14:09:54.309Z,81.96
2023-11-23T14:14:55.900Z,82.20
2023-11-23T14:19:59.435Z,82.92
2023-11-23T14:25:01.836Z,83.76
2023-11-23T14:30:04.847Z,82.63
2023-11-23T14:35:07.761Z,82.21
2023-11-23T14:40:20.113Z,82.39
2023-11-23T14:45:22.957Z,82.95
2023-11-23T14:50:29.488Z,83.86
2023-11-23T14:55:31.216Z,83.48
2023-11-23T15:00:32.717Z,84.41
2023-11-23T15:05:34.208Z,83.74
2023-11-23T15:10:35.774Z,83.56
2023-11-23T15:15:37.418Z,84.29
2023-11-23T15:20:40.228Z,83.72
2023-11-23T15:25:46.957Z,84.24
2023-11-23T15:30:48.772Z,84.29
2023-11-23T15:35:50.705Z,84.72
2023-11-23T15:40:52.232Z,85.17
2023-11-23T15:45:53.735Z,84.07
2023-11-23T15:50:55.252Z,84.86
2023-11-23T15:55:56.745Z,84.95
2023-11-23T16:00:58.265Z,85.06
2023-11-23T16:05:59.864Z,83.79
2023-11-23T16:11:01.800Z,83.56
2023-11-23T16:16:03.338Z,83.53
2023-11-23T16:21:06.550Z,83.84
2023-11-23T16:26:08.072Z,82.36
2023-11-23T16:31:09.567Z,83.00
2023-11-23T16:36:26.397Z,83.50
2023-11-23T16:41:35.088Z,83.51
2023-11-23T16:46:36.586Z,82.95
2023-11-23T16:51:39.180Z,83.60
2023-11-23T16:56:40.666Z,84.23
2023-11-23T17:01:42.296Z,84.84
2023-11-23T17:06:45.359Z,86.47
2023-11-23T17:11:50.859Z,86.99
2023-11-23T17:16:53.332Z,87.24
2023-11-23T17:21:57.866Z,88.00
2023-11-23T17:26:59.409Z,90.87
2023-11-23T17:32:04.532Z,94.76
2023-11-23T17:37:06.091Z,91.36
2023-11-23T17:42:07.808Z,92.78
2023-11-23T17:47:09.463Z,93.91
2023-11-23T17:52:11.747Z,94.14
2023-11-23T17:57:13.314Z,92.98
2023-11-23T18:02:19.936Z,93.42
2023-11-23T18:07:21.692Z,92.78
2023-11-23T18:12:23.691Z,92.83
2023-11-23T18:17:25.241Z,92.21
2023-11-23T18:22:26.947Z,90.92
2023-11-23T18:27:28.466Z,90.98
2023-11-23T18:32:33.282Z,88.29
2023-11-23T18:37:34.955Z,87.69
2023-11-23T18:42:40.308Z,87.50
2023-11-23T18:47:45.398Z,87.45
2023-11-23T18:52:46.911Z,85.59
2023-11-23T18:57:48.418Z,86.20
2023-11-23T19:02:51.333Z,86.37
2023-11-23T19:07:53.350Z,87.59
2023-11-23T19:13:03.497Z,86.82
2023-11-23T19:18:09.004Z,86.55
2023-11-23T19:23:11.302Z,86.65
2023-11-23T19:28:13.240Z,87.84
2023-11-23T19:33:15.071Z,87.05
2023-11-23T19:38:16.753Z,87.46
2023-11-23T19:43:18.632Z,87.04
2023-11-23T19:48:20.473Z,85.83
2023-11-23T19:53:26.815Z,86.00
2023-11-23T19:58:28.359Z,87.11
2023-11-23T20:03:29.927Z,88.76
2023-11-23T20:08:32.602Z,88.10
2023-11-23T20:13:34.167Z,88.57
2023-11-23T20:18:35.771Z,89.50
2023-11-23T20:23:39.578Z,89.83
2023-11-23T20:28:41.171Z,89.02
2023-11-23T20:33:42.793Z,88.71
2023-11-23T20:38:45.244Z,87.35
2023-11-23T20:43:46.742Z,87.93
2023-11-23T20:48:50.942Z,88.10
2023-11-23T20:53:53.795Z,88.50
2023-11-23T20:58:59.661Z,88.13
2023-11-23T21:04:01.803Z,87.85
2023-11-23T21:09:04.562Z,87.65
2023-11-23T21:14:08.249Z,87.76
2023-11-23T21:19:09.835Z,87.59
2023-11-23T21:24:11.645Z,87.81
2023-11-23T21:29:13.192Z,86.83
2023-11-23T21:34:14.881Z,86.13
2023-11-23T21:39:17.314Z,86.09
2023-11-23T21:44:20.393Z,86.64
2023-11-23T21:49:21.990Z,86.37
2023-11-23T21:54:23.503Z,86.07
2023-11-23T21:59:26.687Z,86.21
2023-11-23T22:04:28.141Z,87.17
2023-11-23T22:09:31.505Z,87.58
2023-11-23T22:14:33.144Z,88.75
2023-11-23T22:19:34.870Z,90.15
2023-11-23T22:24:36.753Z,91.46
2023-11-23T22:29:38.288Z,90.73
2023-11-23T22:34:40.357Z,92.25
2023-11-23T22:39:42.220Z,96.50
2023-11-23T22:44:44.041Z,95.87
2023-11-23T22:49:45.526Z,97.96
2023-11-23T22:54:47.797Z,98.35
2023-11-23T22:59:49.335Z,98.77
2023-11-23T23:04:52.581Z,99.26
2023-11-23T23:09:54.253Z,100.00
2023-11-23T23:14:55.759Z,100.00
2023-11-23T23:19:57.218Z,100.00
2023-11-23T23:24:58.799Z,100.00
2023-11-23T23:30:00.309Z,100.00
2023-11-23T23:35:01.736Z,100.00
2023-11-23T23:40:05.670Z,95.06
2023-11-23T23:45:07.672Z,95.89
2023-11-23T23:50:09.500Z,93.27
2023-11-23T23:55:11.084Z,91.81
